Terminal Aerodrome Forecast
Issued by NWS

Home | Current Version | Previous Version | Text Only | Print | Product List | Glossary On
Versions: 1 2 3 4 5 6 7 8 9 10 11 12 13 14 15 16 17 18 19 20 21 22 23 24 25 26 27 28 29 30 31 32 33 34 35
000
FTUS45 KGJT 181733
TAFEGE
TAF
KEGE 181733Z 1818/1918 00000KT P6SM VCSH SCT030 BKN120
      TEMPO 1818/1820 -SHSN BKN035 OVC050
     FM182000 VRB03KT P6SM VCSH SCT025 OVC040
      TEMPO 1820/1824 4SM -SHSN BR OVC025
     FM190200 14004KT 4SM BR SCT009 BKN025=

USA.gov is the U.S. government's official web portal to all federal, state and local government web resources and services.